sensor_id;sensor_type;location;lat;lon;timestamp;P1;durP1;ratioP1;P2;durP2;ratioP2
4744;SDS011;2386;42.138;24.746;2022-12-18T00:01:01;72.03;;;37.97;;
4744;SDS011;2386;42.138;24.746;2022-12-18T00:03:32;60.80;;;35.90;;
4744;SDS011;2386;42.138;24.746;2022-12-18T00:05:59;65.63;;;35.37;;
4744;SDS011;2386;42.138;24.746;2022-12-18T00:08:24;57.77;;;34.87;;
4744;SDS011;2386;42.138;24.746;2022-12-18T00:10:50;65.07;;;34.27;;
4744;SDS011;2386;42.138;24.746;2022-12-18T00:13:17;60.03;;;35.90;;
4744;SDS011;2386;42.138;24.746;2022-12-18T00:15:42;76.30;;;37.57;;
4744;SDS011;2386;42.138;24.746;2022-12-18T00:18:08;67.67;;;37.80;;
4744;SDS011;2386;42.138;24.746;2022-12-18T00:20:35;69.43;;;36.80;;
4744;SDS011;2386;42.138;24.746;2022-12-18T00:23:02;63.83;;;36.23;;
4744;SDS011;2386;42.138;24.746;2022-12-18T00:25:27;58.70;;;34.50;;
4744;SDS011;2386;42.138;24.746;2022-12-18T00:27:53;69.77;;;37.10;;
4744;SDS011;2386;42.138;24.746;2022-12-18T00:30:19;65.90;;;36.27;;
4744;SDS011;2386;42.138;24.746;2022-12-18T00:32:44;51.07;;;31.50;;
4744;SDS011;2386;42.138;24.746;2022-12-18T00:35:10;58.60;;;35.00;;
4744;SDS011;2386;42.138;24.746;2022-12-18T00:37:35;63.10;;;34.73;;
4744;SDS011;2386;42.138;24.746;2022-12-18T00:40:01;61.97;;;34.70;;
4744;SDS011;2386;42.138;24.746;2022-12-18T00:42:27;56.87;;;33.40;;
4744;SDS011;2386;42.138;24.746;2022-12-18T00:45:11;56.20;;;31.63;;
4744;SDS011;2386;42.138;24.746;2022-12-18T00:47:37;62.40;;;36.43;;
4744;SDS011;2386;42.138;24.746;2022-12-18T00:50:05;63.50;;;34.47;;
4744;SDS011;2386;42.138;24.746;2022-12-18T00:52:31;59.53;;;34.70;;
4744;SDS011;2386;42.138;24.746;2022-12-18T00:54:57;59.70;;;34.00;;
4744;SDS011;2386;42.138;24.746;2022-12-18T00:57:23;63.37;;;35.07;;
4744;SDS011;2386;42.138;24.746;2022-12-18T00:59:48;62.37;;;35.90;;
4744;SDS011;2386;42.138;24.746;2022-12-18T01:02:14;55.00;;;34.40;;
4744;SDS011;2386;42.138;24.746;2022-12-18T01:04:39;58.53;;;33.90;;
4744;SDS011;2386;42.138;24.746;2022-12-18T01:07:05;63.40;;;35.93;;
4744;SDS011;2386;42.138;24.746;2022-12-18T01:09:30;62.73;;;33.40;;
4744;SDS011;2386;42.138;24.746;2022-12-18T01:11:55;66.00;;;36.30;;
4744;SDS011;2386;42.138;24.746;2022-12-18T01:14:24;64.43;;;34.23;;
4744;SDS011;2386;42.138;24.746;2022-12-18T01:16:49;58.90;;;33.97;;
4744;SDS011;2386;42.138;24.746;2022-12-18T01:19:15;56.40;;;33.57;;
4744;SDS011;2386;42.138;24.746;2022-12-18T01:21:40;60.17;;;34.80;;
4744;SDS011;2386;42.138;24.746;2022-12-18T01:24:06;60.40;;;34.70;;
4744;SDS011;2386;42.138;24.746;2022-12-18T01:26:32;56.37;;;33.37;;
4744;SDS011;2386;42.138;24.746;2022-12-18T01:28:58;58.47;;;32.70;;
4744;SDS011;2386;42.138;24.746;2022-12-18T01:31:26;56.60;;;33.17;;
4744;SDS011;2386;42.138;24.746;2022-12-18T01:33:53;58.77;;;32.93;;
4744;SDS011;2386;42.138;24.746;2022-12-18T01:36:23;51.37;;;32.10;;
4744;SDS011;2386;42.138;24.746;2022-12-18T01:38:49;53.03;;;31.10;;
4744;SDS011;2386;42.138;24.746;2022-12-18T01:41:16;48.00;;;29.37;;
4744;SDS011;2386;42.138;24.746;2022-12-18T01:43:48;52.57;;;32.20;;
4744;SDS011;2386;42.138;24.746;2022-12-18T01:46:17;52.83;;;32.50;;
4744;SDS011;2386;42.138;24.746;2022-12-18T01:48:44;55.73;;;30.60;;
4744;SDS011;2386;42.138;24.746;2022-12-18T01:51:12;58.67;;;32.73;;
4744;SDS011;2386;42.138;24.746;2022-12-18T01:53:38;54.47;;;32.47;;
4744;SDS011;2386;42.138;24.746;2022-12-18T01:56:06;55.97;;;31.50;;
4744;SDS011;2386;42.138;24.746;2022-12-18T02:01:05;36.30;;;21.50;;
4744;SDS011;2386;42.138;24.746;2022-12-18T02:03:32;32.07;;;19.47;;
4744;SDS011;2386;42.138;24.746;2022-12-18T02:08:51;36.13;;;20.40;;
4744;SDS011;2386;42.138;24.746;2022-12-18T02:17:14;27.67;;;17.13;;
4744;SDS011;2386;42.138;24.746;2022-12-18T02:20:05;25.33;;;17.27;;
4744;SDS011;2386;42.138;24.746;2022-12-18T02:23:24;34.73;;;17.17;;
4744;SDS011;2386;42.138;24.746;2022-12-18T02:26:03;25.43;;;16.57;;
4744;SDS011;2386;42.138;24.746;2022-12-18T02:28:31;26.13;;;16.00;;
4744;SDS011;2386;42.138;24.746;2022-12-18T02:31:00;23.40;;;16.37;;
4744;SDS011;2386;42.138;24.746;2022-12-18T02:33:29;36.43;;;17.23;;
4744;SDS011;2386;42.138;24.746;2022-12-18T02:36:01;24.27;;;15.23;;
4744;SDS011;2386;42.138;24.746;2022-12-18T02:38:28;21.77;;;16.03;;
4744;SDS011;2386;42.138;24.746;2022-12-18T02:40:59;24.00;;;15.43;;
4744;SDS011;2386;42.138;24.746;2022-12-18T02:43:25;28.30;;;16.20;;
4744;SDS011;2386;42.138;24.746;2022-12-18T02:45:56;28.93;;;15.53;;
4744;SDS011;2386;42.138;24.746;2022-12-18T02:48:26;23.17;;;14.73;;
4744;SDS011;2386;42.138;24.746;2022-12-18T02:53:56;23.23;;;15.37;;
4744;SDS011;2386;42.138;24.746;2022-12-18T02:56:40;25.30;;;15.63;;
4744;SDS011;2386;42.138;24.746;2022-12-18T02:59:17;23.83;;;15.10;;
4744;SDS011;2386;42.138;24.746;2022-12-18T03:04:26;22.40;;;16.20;;
4744;SDS011;2386;42.138;24.746;2022-12-18T03:06:57;23.10;;;15.83;;
4744;SDS011;2386;42.138;24.746;2022-12-18T03:09:29;25.50;;;16.50;;
4744;SDS011;2386;42.138;24.746;2022-12-18T03:12:07;28.23;;;16.90;;
4744;SDS011;2386;42.138;24.746;2022-12-18T03:15:04;22.60;;;15.40;;
4744;SDS011;2386;42.138;24.746;2022-12-18T03:17:32;25.97;;;16.07;;
4744;SDS011;2386;42.138;24.746;2022-12-18T03:20:05;27.00;;;16.73;;
4744;SDS011;2386;42.138;24.746;2022-12-18T03:22:35;22.13;;;14.67;;
4744;SDS011;2386;42.138;24.746;2022-12-18T03:25:04;31.40;;;16.30;;
4744;SDS011;2386;42.138;24.746;2022-12-18T03:27:32;24.87;;;16.17;;
4744;SDS011;2386;42.138;24.746;2022-12-18T03:30:03;23.43;;;15.07;;
4744;SDS011;2386;42.138;24.746;2022-12-18T03:38:47;21.27;;;12.90;;
4744;SDS011;2386;42.138;24.746;2022-12-18T03:41:15;24.00;;;13.37;;
4744;SDS011;2386;42.138;24.746;2022-12-18T03:43:53;20.30;;;11.93;;
4744;SDS011;2386;42.138;24.746;2022-12-18T03:49:55;17.10;;;10.70;;
4744;SDS011;2386;42.138;24.746;2022-12-18T03:52:36;18.10;;;12.27;;
4744;SDS011;2386;42.138;24.746;2022-12-18T03:55:19;17.60;;;11.90;;
4744;SDS011;2386;42.138;24.746;2022-12-18T03:57:47;16.93;;;11.20;;
4744;SDS011;2386;42.138;24.746;2022-12-18T04:00:14;23.90;;;12.43;;
4744;SDS011;2386;42.138;24.746;2022-12-18T04:02:52;14.40;;;10.50;;
4744;SDS011;2386;42.138;24.746;2022-12-18T04:05:19;18.53;;;11.70;;
4744;SDS011;2386;42.138;24.746;2022-12-18T04:07:47;13.83;;;9.93;;
4744;SDS011;2386;42.138;24.746;2022-12-18T04:10:15;15.83;;;9.90;;
4744;SDS011;2386;42.138;24.746;2022-12-18T04:12:41;12.53;;;9.93;;
4744;SDS011;2386;42.138;24.746;2022-12-18T04:15:07;11.93;;;9.50;;
4744;SDS011;2386;42.138;24.746;2022-12-18T04:17:34;15.70;;;10.37;;
4744;SDS011;2386;42.138;24.746;2022-12-18T04:20:00;16.90;;;10.30;;
4744;SDS011;2386;42.138;24.746;2022-12-18T04:22:25;14.27;;;10.00;;
4744;SDS011;2386;42.138;24.746;2022-12-18T04:24:50;15.90;;;10.50;;
4744;SDS011;2386;42.138;24.746;2022-12-18T04:27:16;11.30;;;8.87;;
4744;SDS011;2386;42.138;24.746;2022-12-18T04:29:41;16.30;;;9.90;;
4744;SDS011;2386;42.138;24.746;2022-12-18T04:32:07;13.97;;;8.70;;
4744;SDS011;2386;42.138;24.746;2022-12-18T04:34:33;12.60;;;8.77;;
4744;SDS011;2386;42.138;24.746;2022-12-18T04:36:58;13.00;;;8.13;;
4744;SDS011;2386;42.138;24.746;2022-12-18T04:39:24;12.83;;;7.87;;
4744;SDS011;2386;42.138;24.746;2022-12-18T04:41:49;11.17;;;7.83;;
4744;SDS011;2386;42.138;24.746;2022-12-18T04:44:14;9.03;;;7.23;;
4744;SDS011;2386;42.138;24.746;2022-12-18T04:46:40;11.57;;;8.20;;
4744;SDS011;2386;42.138;24.746;2022-12-18T04:49:05;11.13;;;7.93;;
4744;SDS011;2386;42.138;24.746;2022-12-18T04:51:31;8.23;;;7.13;;
4744;SDS011;2386;42.138;24.746;2022-12-18T04:53:56;9.03;;;7.23;;
4744;SDS011;2386;42.138;24.746;2022-12-18T04:56:22;8.70;;;6.43;;
4744;SDS011;2386;42.138;24.746;2022-12-18T04:58:47;8.27;;;6.03;;
4744;SDS011;2386;42.138;24.746;2022-12-18T05:01:14;10.17;;;7.00;;
4744;SDS011;2386;42.138;24.746;2022-12-18T05:03:40;9.37;;;6.80;;
4744;SDS011;2386;42.138;24.746;2022-12-18T05:06:06;7.83;;;6.40;;
4744;SDS011;2386;42.138;24.746;2022-12-18T05:08:32;12.43;;;6.47;;
4744;SDS011;2386;42.138;24.746;2022-12-18T05:13:31;8.63;;;5.93;;
4744;SDS011;2386;42.138;24.746;2022-12-18T05:15:57;5.00;;;4.50;;
4744;SDS011;2386;42.138;24.746;2022-12-18T05:18:23;10.73;;;5.10;;
4744;SDS011;2386;42.138;24.746;2022-12-18T05:20:52;9.30;;;5.83;;
4744;SDS011;2386;42.138;24.746;2022-12-18T05:23:18;6.43;;;5.80;;
4744;SDS011;2386;42.138;24.746;2022-12-18T05:25:50;10.20;;;5.97;;
4744;SDS011;2386;42.138;24.746;2022-12-18T05:28:27;6.93;;;5.90;;
4744;SDS011;2386;42.138;24.746;2022-12-18T05:30:55;14.60;;;5.77;;
4744;SDS011;2386;42.138;24.746;2022-12-18T05:33:23;7.20;;;6.17;;
4744;SDS011;2386;42.138;24.746;2022-12-18T05:35:51;8.30;;;5.90;;
4744;SDS011;2386;42.138;24.746;2022-12-18T05:38:18;7.57;;;5.63;;
4744;SDS011;2386;42.138;24.746;2022-12-18T05:40:44;7.30;;;5.60;;
4744;SDS011;2386;42.138;24.746;2022-12-18T05:43:09;11.60;;;6.27;;
4744;SDS011;2386;42.138;24.746;2022-12-18T05:45:39;7.83;;;6.23;;
4744;SDS011;2386;42.138;24.746;2022-12-18T05:48:05;9.37;;;6.57;;
4744;SDS011;2386;42.138;24.746;2022-12-18T05:50:35;9.97;;;6.70;;
4744;SDS011;2386;42.138;24.746;2022-12-18T05:53:05;10.07;;;7.13;;
4744;SDS011;2386;42.138;24.746;2022-12-18T05:55:34;9.47;;;7.00;;
4744;SDS011;2386;42.138;24.746;2022-12-18T05:58:01;6.47;;;5.87;;
4744;SDS011;2386;42.138;24.746;2022-12-18T06:00:28;8.87;;;6.50;;
4744;SDS011;2386;42.138;24.746;2022-12-18T06:02:54;6.83;;;5.90;;
4744;SDS011;2386;42.138;24.746;2022-12-18T06:05:19;11.47;;;6.10;;
4744;SDS011;2386;42.138;24.746;2022-12-18T06:07:44;7.20;;;5.93;;
4744;SDS011;2386;42.138;24.746;2022-12-18T06:10:10;6.50;;;5.53;;
4744;SDS011;2386;42.138;24.746;2022-12-18T06:12:36;7.47;;;6.37;;
4744;SDS011;2386;42.138;24.746;2022-12-18T06:15:02;7.20;;;5.90;;
4744;SDS011;2386;42.138;24.746;2022-12-18T06:17:31;5.47;;;4.60;;
4744;SDS011;2386;42.138;24.746;2022-12-18T06:19:57;6.53;;;5.60;;
4744;SDS011;2386;42.138;24.746;2022-12-18T06:22:23;6.20;;;5.03;;
4744;SDS011;2386;42.138;24.746;2022-12-18T06:24:49;5.80;;;5.20;;
4744;SDS011;2386;42.138;24.746;2022-12-18T06:27:15;10.93;;;5.67;;
4744;SDS011;2386;42.138;24.746;2022-12-18T06:29:41;10.30;;;5.47;;
4744;SDS011;2386;42.138;24.746;2022-12-18T06:32:06;10.20;;;5.70;;
4744;SDS011;2386;42.138;24.746;2022-12-18T06:34:37;6.93;;;5.50;;
4744;SDS011;2386;42.138;24.746;2022-12-18T06:37:07;6.97;;;5.40;;
4744;SDS011;2386;42.138;24.746;2022-12-18T06:39:38;7.90;;;5.70;;
4744;SDS011;2386;42.138;24.746;2022-12-18T06:42:21;5.77;;;4.93;;
4744;SDS011;2386;42.138;24.746;2022-12-18T06:45:47;12.97;;;6.00;;
4744;SDS011;2386;42.138;24.746;2022-12-18T06:51:55;7.27;;;5.40;;
4744;SDS011;2386;42.138;24.746;2022-12-18T06:58:24;7.03;;;5.17;;
4744;SDS011;2386;42.138;24.746;2022-12-18T07:00:59;6.70;;;4.83;;
4744;SDS011;2386;42.138;24.746;2022-12-18T07:03:55;9.00;;;5.73;;
4744;SDS011;2386;42.138;24.746;2022-12-18T07:06:30;7.40;;;5.90;;
4744;SDS011;2386;42.138;24.746;2022-12-18T07:09:11;7.73;;;5.60;;
4744;SDS011;2386;42.138;24.746;2022-12-18T07:11:47;9.20;;;6.70;;
